createdAt,value
2019-01-31T00:00:29.900Z,22.10
2019-01-31T00:03:06.767Z,21.90
2019-01-31T00:05:54.054Z,21.70
2019-01-31T00:08:29.571Z,21.75
2019-01-31T00:11:22.641Z,23.42
2019-01-31T00:13:54.207Z,21.30
2019-01-31T00:16:45.118Z,22.65
2019-01-31T00:19:25.302Z,22.00
2019-01-31T00:22:21.574Z,22.87
2019-01-31T00:24:55.181Z,23.70
2019-01-31T00:27:41.381Z,20.23
2019-01-31T00:30:35.773Z,22.93
2019-01-31T00:33:22.738Z,21.17
2019-01-31T00:35:59.857Z,21.20
2019-01-31T00:38:56.512Z,20.75
2019-01-31T00:41:31.537Z,21.27
2019-01-31T00:44:10.660Z,22.42
2019-01-31T00:47:06.400Z,20.82
2019-01-31T00:49:37.825Z,23.07
2019-01-31T00:52:42.736Z,21.25
2019-01-31T00:55:28.046Z,21.27
2019-01-31T00:58:13.312Z,21.23
2019-01-31T01:01:03.481Z,21.60
2019-01-31T01:03:55.929Z,20.43
2019-01-31T01:06:41.476Z,24.07
2019-01-31T01:09:39.635Z,21.82
2019-01-31T01:12:14.935Z,20.27
2019-01-31T01:14:48.067Z,19.50
2019-01-31T01:17:21.436Z,23.20
2019-01-31T01:20:01.254Z,20.25
2019-01-31T01:22:39.487Z,22.22
2019-01-31T01:25:29.868Z,21.85
2019-01-31T01:28:03.845Z,20.05
2019-01-31T01:30:45.402Z,19.70
2019-01-31T02:27:14.350Z,17.37
2019-01-31T02:30:16.355Z,16.30
2019-01-31T02:33:12.434Z,16.17
2019-01-31T02:35:44.412Z,15.80
2019-01-31T02:38:30.006Z,16.60
2019-01-31T02:41:25.445Z,17.62
2019-01-31T02:44:18.500Z,17.25
2019-01-31T02:46:57.514Z,18.62
2019-01-31T02:49:53.469Z,16.37
2019-01-31T02:52:40.734Z,17.85
2019-01-31T02:55:28.831Z,17.80
2019-01-31T02:58:03.373Z,16.80
2019-01-31T03:00:59.325Z,16.55
2019-01-31T03:04:04.465Z,15.90
2019-01-31T03:06:45.522Z,16.00
2019-01-31T03:09:16.745Z,16.57
2019-01-31T03:12:09.753Z,16.75
2019-01-31T03:14:40.218Z,16.27
2019-01-31T03:17:25.825Z,17.40
2019-01-31T03:20:15.700Z,17.15
2019-01-31T03:23:02.678Z,15.75
2019-01-31T03:25:36.000Z,15.60
2019-01-31T03:28:17.049Z,13.98
2019-01-31T03:31:02.740Z,12.58
2019-01-31T03:33:55.982Z,14.45
2019-01-31T03:36:41.787Z,12.20
2019-01-31T03:39:13.719Z,12.82
2019-01-31T03:42:06.643Z,12.90
2019-01-31T03:45:05.015Z,11.57
2019-01-31T03:47:55.085Z,11.43
2019-01-31T03:50:29.581Z,10.00
2019-01-31T03:53:22.630Z,11.22
2019-01-31T03:56:08.237Z,10.80
2019-01-31T03:58:48.354Z,10.23
2019-01-31T04:01:34.191Z,10.82
2019-01-31T04:04:04.982Z,10.53
2019-01-31T04:06:34.292Z,9.75
2019-01-31T04:09:02.244Z,10.60
2019-01-31T04:11:30.119Z,11.60
2019-01-31T04:14:00.879Z,11.73
2019-01-31T04:16:30.178Z,11.33
2019-01-31T04:18:59.341Z,12.40
2019-01-31T04:21:27.298Z,10.50
2019-01-31T04:23:55.334Z,11.22
2019-01-31T04:26:24.991Z,11.68
2019-01-31T04:28:55.061Z,13.10
2019-01-31T04:31:23.470Z,12.03
2019-01-31T04:33:51.355Z,11.12
2019-01-31T04:36:19.230Z,11.10
2019-01-31T04:38:47.137Z,11.80
2019-01-31T04:41:15.082Z,12.78
2019-01-31T04:43:43.809Z,11.38
2019-01-31T04:46:11.669Z,11.93
2019-01-31T04:48:39.577Z,10.88
2019-01-31T04:51:07.498Z,10.98
2019-01-31T04:53:35.442Z,13.22
2019-01-31T04:56:07.111Z,10.25
2019-01-31T04:58:35.055Z,11.80
2019-01-31T05:01:02.911Z,11.18
2019-01-31T05:03:30.784Z,12.03
2019-01-31T05:05:58.804Z,10.68
2019-01-31T05:08:26.691Z,11.15
2019-01-31T05:10:55.734Z,9.85
2019-01-31T05:13:23.713Z,10.25
2019-01-31T05:15:51.609Z,9.55
2019-01-31T05:18:19.520Z,9.68
2019-01-31T05:20:47.482Z,9.48
2019-01-31T05:23:17.101Z,9.90
2019-01-31T05:25:45.956Z,10.78
2019-01-31T05:28:14.022Z,11.38
2019-01-31T05:30:41.875Z,11.12
2019-01-31T05:33:12.290Z,11.97
2019-01-31T05:35:40.530Z,10.82
2019-01-31T05:38:08.512Z,10.95
2019-01-31T05:40:37.510Z,12.33
2019-01-31T05:43:06.517Z,10.25
2019-01-31T05:45:34.998Z,12.33
2019-01-31T05:48:03.171Z,11.10
2019-01-31T05:50:31.053Z,9.30
2019-01-31T05:52:58.938Z,9.25
2019-01-31T05:55:26.821Z,8.78
2019-01-31T05:57:55.042Z,10.58
2019-01-31T06:00:33.065Z,9.15
2019-01-31T06:03:02.244Z,9.33
2019-01-31T06:05:30.139Z,10.88
2019-01-31T06:07:58.151Z,10.25
2019-01-31T06:10:26.005Z,8.88
2019-01-31T06:12:53.872Z,9.88
2019-01-31T06:15:21.758Z,10.00
2019-01-31T06:17:49.829Z,9.43
2019-01-31T06:20:19.075Z,9.65
2019-01-31T06:22:48.059Z,9.68
2019-01-31T06:25:16.030Z,9.35
2019-01-31T06:27:43.966Z,7.80
2019-01-31T06:30:18.094Z,8.25
2019-01-31T06:32:46.038Z,8.75
2019-01-31T06:35:14.062Z,7.17
2019-01-31T06:37:41.910Z,6.75
2019-01-31T06:40:11.066Z,7.75
2019-01-31T06:42:38.988Z,7.78
2019-01-31T06:45:08.217Z,7.15
2019-01-31T06:47:36.328Z,8.18
2019-01-31T06:50:04.344Z,6.00
2019-01-31T06:52:32.241Z,7.30
2019-01-31T06:55:00.050Z,8.55
2019-01-31T06:57:27.902Z,7.28
2019-01-31T06:59:55.697Z,7.50
2019-01-31T07:02:23.545Z,7.30
2019-01-31T07:04:51.401Z,7.40
2019-01-31T07:07:20.102Z,7.58
2019-01-31T07:09:47.959Z,7.10
2019-01-31T07:12:15.809Z,7.60
2019-01-31T07:14:43.643Z,7.30
2019-01-31T07:17:11.506Z,6.50
2019-01-31T07:19:39.382Z,6.35
2019-01-31T07:22:07.185Z,7.00
2019-01-31T07:24:35.030Z,7.33
2019-01-31T07:27:02.861Z,7.28
2019-01-31T07:29:30.688Z,7.22
2019-01-31T07:31:58.484Z,7.22
2019-01-31T07:34:26.314Z,6.78
2019-01-31T07:36:54.116Z,6.45
2019-01-31T07:39:21.976Z,6.90
2019-01-31T07:41:49.797Z,6.60
2019-01-31T07:44:17.623Z,7.53
2019-01-31T07:46:45.445Z,7.72
2019-01-31T07:49:13.417Z,7.50
2019-01-31T07:51:41.238Z,7.53
2019-01-31T07:54:09.073Z,7.33
2019-01-31T07:56:36.890Z,7.30
2019-01-31T07:59:04.761Z,6.80
2019-01-31T08:01:32.602Z,7.92
2019-01-31T08:04:02.701Z,7.17
2019-01-31T08:06:29.982Z,7.00
2019-01-31T08:08:57.793Z,7.03
2019-01-31T08:11:25.671Z,7.45
2019-01-31T08:13:53.475Z,8.00
2019-01-31T08:16:21.314Z,6.10
2019-01-31T08:18:49.146Z,7.00
2019-01-31T08:21:16.974Z,7.70
2019-01-31T08:23:44.786Z,7.90
2019-01-31T08:26:12.641Z,7.72
2019-01-31T08:28:40.402Z,8.03
2019-01-31T08:31:08.391Z,8.53
2019-01-31T08:33:36.469Z,7.92
2019-01-31T08:36:04.347Z,6.37
2019-01-31T08:38:32.126Z,8.13
2019-01-31T08:41:00.329Z,7.03
2019-01-31T08:43:28.046Z,6.75
2019-01-31T08:45:55.863Z,7.28
2019-01-31T08:48:24.265Z,6.08
2019-01-31T08:50:52.162Z,7.83
2019-01-31T08:53:20.155Z,7.45
2019-01-31T08:55:47.997Z,8.05
2019-01-31T08:58:16.180Z,7.80
2019-01-31T09:00:44.042Z,6.30
2019-01-31T09:03:11.931Z,6.05
2019-01-31T09:05:39.766Z,6.97
2019-01-31T09:08:07.659Z,6.80
2019-01-31T09:10:36.523Z,6.70
2019-01-31T09:13:05.856Z,6.25
2019-01-31T09:15:33.669Z,6.97
2019-01-31T09:18:01.509Z,6.85
2019-01-31T09:20:34.875Z,7.05
2019-01-31T09:23:21.866Z,7.12
2019-01-31T09:26:07.440Z,7.00
2019-01-31T09:28:57.431Z,8.90
2019-01-31T09:31:45.604Z,7.15
2019-01-31T09:34:41.648Z,8.18
2019-01-31T09:37:17.070Z,7.10
2019-01-31T09:39:51.714Z,7.15
2019-01-31T09:42:41.493Z,7.83
2019-01-31T09:45:28.484Z,8.90
2019-01-31T09:48:21.437Z,8.23
2019-01-31T09:50:53.575Z,8.10
2019-01-31T09:53:39.061Z,8.10
2019-01-31T09:56:13.577Z,8.00
2019-01-31T09:59:02.346Z,6.33
2019-01-31T10:01:52.623Z,8.20
2019-01-31T10:04:32.962Z,7.33
2019-01-31T10:07:32.000Z,7.00
2019-01-31T10:10:18.567Z,7.78
2019-01-31T10:13:03.174Z,7.67
2019-01-31T10:15:43.172Z,7.33
2019-01-31T10:18:30.104Z,7.50
2019-01-31T10:21:04.363Z,7.00
2019-01-31T10:23:45.129Z,7.95
2019-01-31T10:26:32.126Z,7.87
2019-01-31T10:29:23.497Z,9.00
2019-01-31T10:31:55.939Z,10.10
2019-01-31T10:34:49.213Z,10.05
2019-01-31T10:37:36.198Z,12.05
2019-01-31T10:40:25.908Z,12.07
2019-01-31T10:43:15.821Z,11.50
2019-01-31T10:45:51.916Z,11.15
2019-01-31T10:48:37.688Z,9.60
2019-01-31T10:51:15.181Z,8.83
2019-01-31T10:53:44.977Z,10.85
2019-01-31T10:56:34.964Z,10.23
2019-01-31T10:59:24.813Z,10.13
2019-01-31T11:02:29.831Z,9.25
2019-01-31T11:05:19.872Z,10.43
2019-01-31T11:08:05.692Z,10.00
2019-01-31T11:10:47.567Z,9.88
2019-01-31T11:13:34.510Z,10.48
2019-01-31T11:16:07.668Z,9.98
2019-01-31T11:19:05.340Z,9.65
2019-01-31T11:21:46.301Z,10.25
2019-01-31T11:24:39.043Z,10.08
2019-01-31T11:27:32.071Z,11.48
2019-01-31T11:30:04.490Z,11.48
2019-01-31T11:32:57.490Z,10.30
2019-01-31T11:35:42.331Z,10.28
2019-01-31T11:38:21.237Z,10.18
2019-01-31T11:41:07.143Z,9.88
2019-01-31T11:43:56.917Z,9.83
2019-01-31T11:46:45.777Z,8.50
2019-01-31T11:49:35.714Z,10.13
2019-01-31T11:52:28.835Z,8.95
2019-01-31T11:55:08.268Z,8.85
2019-01-31T11:57:54.049Z,9.33
2019-01-31T12:00:24.116Z,8.95
2019-01-31T12:02:55.186Z,12.40
2019-01-31T12:05:21.549Z,9.55
2019-01-31T12:07:49.374Z,9.23
2019-01-31T12:10:17.383Z,9.60
2019-01-31T12:12:45.200Z,8.30
2019-01-31T12:15:16.091Z,8.20
2019-01-31T12:17:43.941Z,8.63
2019-01-31T12:20:11.856Z,8.40
2019-01-31T12:22:39.686Z,9.43
2019-01-31T12:25:07.623Z,8.65
2019-01-31T12:27:35.482Z,8.33
2019-01-31T12:30:03.840Z,8.55
2019-01-31T12:32:31.665Z,8.48
2019-01-31T12:34:59.613Z,8.05
2019-01-31T12:37:27.417Z,8.30
2019-01-31T12:39:55.241Z,8.75
2019-01-31T12:42:23.086Z,8.03
2019-01-31T12:44:50.881Z,8.73
2019-01-31T12:47:18.990Z,9.05
2019-01-31T12:49:46.810Z,8.23
2019-01-31T12:52:14.685Z,10.00
2019-01-31T12:54:42.522Z,8.43
2019-01-31T12:57:10.351Z,10.15
2019-01-31T12:59:38.178Z,8.45
2019-01-31T13:02:06.706Z,8.08
2019-01-31T13:04:34.766Z,8.40
2019-01-31T13:07:03.149Z,8.85
2019-01-31T13:09:30.952Z,8.28
2019-01-31T13:11:58.808Z,7.30
2019-01-31T13:14:28.474Z,7.65
2019-01-31T13:16:56.177Z,8.08
2019-01-31T13:19:24.000Z,8.10
2019-01-31T13:21:51.951Z,7.50
2019-01-31T13:24:19.777Z,7.37
2019-01-31T13:26:47.607Z,7.25
2019-01-31T13:29:15.507Z,7.22
2019-01-31T13:31:43.410Z,6.90
2019-01-31T13:34:11.259Z,8.80
2019-01-31T13:36:39.466Z,7.10
2019-01-31T13:39:11.960Z,7.47
2019-01-31T13:41:41.968Z,6.37
2019-01-31T13:44:09.717Z,6.58
2019-01-31T13:46:37.593Z,8.20
2019-01-31T13:49:05.570Z,6.80
2019-01-31T13:51:33.372Z,7.37
2019-01-31T13:54:01.234Z,7.85
2019-01-31T13:56:29.090Z,8.05
2019-01-31T13:58:56.926Z,6.70
2019-01-31T14:01:24.730Z,7.10
2019-01-31T14:03:52.597Z,7.92
2019-01-31T14:06:20.401Z,7.75
2019-01-31T14:08:48.278Z,7.55
2019-01-31T14:11:16.104Z,7.62
2019-01-31T14:13:43.930Z,7.78
2019-01-31T14:16:11.811Z,7.20
2019-01-31T14:18:39.652Z,7.42
2019-01-31T14:21:07.701Z,6.78
2019-01-31T14:23:35.594Z,6.45
2019-01-31T14:26:03.431Z,7.15
2019-01-31T14:28:31.271Z,6.45
2019-01-31T14:30:59.120Z,6.87
2019-01-31T14:33:27.826Z,8.10
2019-01-31T14:35:57.959Z,5.80
2019-01-31T14:38:25.897Z,7.20
2019-01-31T14:40:53.766Z,7.37
2019-01-31T14:43:21.583Z,7.67
2019-01-31T14:45:49.491Z,6.80
2019-01-31T14:48:17.346Z,7.42
2019-01-31T14:50:45.546Z,7.53
2019-01-31T14:53:13.382Z,6.25
2019-01-31T14:55:41.229Z,7.00
2019-01-31T14:58:09.938Z,7.10
2019-01-31T15:00:37.833Z,7.50
2019-01-31T15:03:05.682Z,7.92
2019-01-31T15:05:33.478Z,7.35
2019-01-31T15:08:01.364Z,7.03
2019-01-31T15:10:29.269Z,6.85
2019-01-31T15:12:57.325Z,7.42
2019-01-31T15:15:25.620Z,6.67
2019-01-31T15:17:53.462Z,7.90
2019-01-31T15:20:34.406Z,7.37
2019-01-31T15:22:52.213Z,7.00
2019-01-31T15:25:20.118Z,8.10
2019-01-31T15:27:48.329Z,7.55
2019-01-31T15:30:17.810Z,8.20
2019-01-31T15:32:45.698Z,7.75
2019-01-31T15:35:14.126Z,8.10
2019-01-31T15:37:41.961Z,6.97
2019-01-31T15:40:11.439Z,7.55
2019-01-31T15:42:39.291Z,7.90
2019-01-31T15:45:07.502Z,7.22
2019-01-31T15:47:35.475Z,7.80
2019-01-31T15:50:04.102Z,7.12
2019-01-31T15:52:31.954Z,7.67
2019-01-31T15:54:59.851Z,8.35
2019-01-31T15:57:27.738Z,7.20
2019-01-31T15:59:55.579Z,7.40
2019-01-31T16:02:23.532Z,8.25
2019-01-31T16:04:51.365Z,7.50
2019-01-31T16:07:19.178Z,8.70
2019-01-31T16:09:47.057Z,8.58
2019-01-31T16:12:14.947Z,7.40
2019-01-31T16:14:54.299Z,8.73
2019-01-31T16:17:12.427Z,7.90
2019-01-31T16:19:40.279Z,7.90
2019-01-31T16:22:08.202Z,8.13
2019-01-31T16:24:36.072Z,8.43
2019-01-31T16:27:04.303Z,9.53
2019-01-31T16:29:32.199Z,7.90
2019-01-31T16:32:00.058Z,7.87
2019-01-31T16:34:28.065Z,10.32
2019-01-31T16:36:55.905Z,9.63
2019-01-31T16:39:23.817Z,11.75
2019-01-31T16:41:51.880Z,10.45
2019-01-31T16:44:19.787Z,9.60
2019-01-31T16:46:47.682Z,11.35
2019-01-31T16:49:15.540Z,9.08
2019-01-31T16:51:45.463Z,8.95
2019-01-31T16:54:13.022Z,8.60
2019-01-31T16:56:40.896Z,7.35
2019-01-31T16:59:08.758Z,9.35
2019-01-31T17:01:36.770Z,10.23
2019-01-31T17:04:04.692Z,9.33
2019-01-31T17:06:32.571Z,7.80
2019-01-31T17:09:00.458Z,8.10
2019-01-31T17:11:28.379Z,7.10
2019-01-31T17:13:56.428Z,9.20
2019-01-31T17:16:24.333Z,9.08
2019-01-31T17:18:54.832Z,9.48
2019-01-31T17:21:21.784Z,8.88
2019-01-31T17:23:49.651Z,9.58
2019-01-31T17:26:17.533Z,8.40
2019-01-31T17:28:45.401Z,7.55
2019-01-31T17:31:13.372Z,7.45
2019-01-31T17:33:41.337Z,6.62
2019-01-31T17:36:09.310Z,6.97
2019-01-31T17:38:37.148Z,6.45
2019-01-31T17:41:05.034Z,6.33
2019-01-31T17:43:32.873Z,5.78
2019-01-31T17:46:00.880Z,7.00
2019-01-31T17:48:28.796Z,6.60
2019-01-31T17:50:56.691Z,6.45
2019-01-31T17:53:24.551Z,6.58
2019-01-31T17:55:52.414Z,6.60
2019-01-31T17:58:20.265Z,5.35
2019-01-31T18:00:53.501Z,6.15
2019-01-31T18:03:21.349Z,5.87
2019-01-31T18:05:49.331Z,6.25
2019-01-31T18:08:17.261Z,5.70
2019-01-31T18:10:45.147Z,6.70
2019-01-31T18:13:13.185Z,7.55
2019-01-31T18:15:42.423Z,6.37
2019-01-31T18:18:10.580Z,6.37
2019-01-31T18:20:38.519Z,5.35
2019-01-31T18:23:07.576Z,5.90
2019-01-31T18:25:35.540Z,6.62
2019-01-31T18:28:07.114Z,5.55
2019-01-31T18:30:35.143Z,5.72
2019-01-31T18:33:03.217Z,5.78
2019-01-31T18:35:32.185Z,5.58
2019-01-31T18:38:00.401Z,5.35
2019-01-31T18:40:29.327Z,5.80
2019-01-31T18:42:57.295Z,7.95
2019-01-31T18:45:26.146Z,7.33
2019-01-31T18:47:54.171Z,5.62
2019-01-31T18:50:23.140Z,5.35
2019-01-31T18:52:51.086Z,6.37
2019-01-31T18:55:19.014Z,5.80
2019-01-31T18:57:46.934Z,4.35
2019-01-31T19:00:17.677Z,5.33
2019-01-31T19:02:45.617Z,4.83
2019-01-31T19:05:13.670Z,5.20
2019-01-31T19:07:42.135Z,4.80
2019-01-31T19:10:10.778Z,4.70
2019-01-31T19:12:38.673Z,4.70
2019-01-31T19:15:08.242Z,4.50
2019-01-31T19:17:36.198Z,5.15
2019-01-31T19:20:05.246Z,5.50
2019-01-31T19:22:33.473Z,4.55
2019-01-31T19:25:01.370Z,4.87
2019-01-31T19:27:29.612Z,4.75
2019-01-31T19:29:57.630Z,5.22
2019-01-31T19:32:26.790Z,5.10
2019-01-31T19:34:54.759Z,5.15
2019-01-31T19:37:22.719Z,5.83
2019-01-31T19:39:50.682Z,5.28
2019-01-31T19:42:18.581Z,5.58
2019-01-31T19:44:48.749Z,6.15
2019-01-31T19:47:17.280Z,7.53
2019-01-31T19:49:45.245Z,5.62
2019-01-31T19:52:13.840Z,5.95
2019-01-31T19:54:41.694Z,5.90
2019-01-31T19:57:09.756Z,6.40
2019-01-31T19:59:39.483Z,6.30
2019-01-31T20:02:07.976Z,6.47
2019-01-31T20:04:37.025Z,6.20
2019-01-31T20:07:05.549Z,5.75
2019-01-31T20:09:34.483Z,5.72
2019-01-31T20:12:02.418Z,6.03
2019-01-31T20:14:30.328Z,5.60
2019-01-31T20:16:58.730Z,6.00
2019-01-31T20:19:27.280Z,6.12
2019-01-31T20:21:55.233Z,6.17
2019-01-31T20:24:23.117Z,5.15
2019-01-31T20:26:53.988Z,6.30
2019-01-31T20:29:22.105Z,5.80
2019-01-31T20:31:51.693Z,6.08
2019-01-31T20:34:19.657Z,6.30
2019-01-31T20:36:49.026Z,5.53
2019-01-31T20:39:17.046Z,6.05
2019-01-31T20:41:53.819Z,5.78
2019-01-31T20:44:14.796Z,7.15
2019-01-31T20:46:42.757Z,6.75
2019-01-31T20:49:11.139Z,5.90
2019-01-31T20:51:40.151Z,5.42
2019-01-31T20:54:11.351Z,6.12
2019-01-31T20:56:39.354Z,5.80
2019-01-31T20:59:09.653Z,6.30
2019-01-31T21:01:37.560Z,6.20
2019-01-31T21:04:05.442Z,6.40
2019-01-31T21:06:41.228Z,7.15
2019-01-31T21:09:05.302Z,7.25
2019-01-31T21:11:34.731Z,7.00
2019-01-31T21:14:06.249Z,6.58
2019-01-31T21:16:35.890Z,7.40
2019-01-31T21:19:04.297Z,7.12
2019-01-31T21:21:33.362Z,6.28
2019-01-31T21:24:01.278Z,7.72
2019-01-31T21:26:29.230Z,5.47
2019-01-31T21:28:57.167Z,6.53
2019-01-31T21:31:25.229Z,5.70
2019-01-31T21:33:53.259Z,7.00
2019-01-31T21:36:21.174Z,6.45
2019-01-31T21:38:49.161Z,6.95
2019-01-31T21:41:22.381Z,6.28
2019-01-31T21:43:50.322Z,7.10
2019-01-31T21:46:18.314Z,6.97
2019-01-31T21:48:46.518Z,7.78
2019-01-31T21:51:22.070Z,7.10
2019-01-31T21:53:50.047Z,6.78
2019-01-31T21:56:18.259Z,7.22
2019-01-31T21:58:47.976Z,7.28
2019-01-31T22:01:16.167Z,7.20
2019-01-31T22:03:46.135Z,7.78
2019-01-31T22:06:22.631Z,7.28
2019-01-31T22:08:45.894Z,7.45
2019-01-31T22:11:15.132Z,8.85
2019-01-31T22:13:43.124Z,7.37
2019-01-31T22:16:11.143Z,8.20
2019-01-31T22:18:39.083Z,7.95
2019-01-31T22:21:06.965Z,7.80
2019-01-31T22:23:37.641Z,7.20
2019-01-31T22:26:05.614Z,8.43
2019-01-31T22:28:34.794Z,8.18
2019-01-31T22:31:02.703Z,7.70
2019-01-31T22:33:33.007Z,8.35
2019-01-31T22:36:00.868Z,7.60
2019-01-31T22:38:28.794Z,6.70
2019-01-31T22:40:56.719Z,7.47
2019-01-31T22:43:24.890Z,8.03
2019-01-31T22:45:52.761Z,7.05
2019-01-31T22:48:20.770Z,7.60
2019-01-31T22:50:50.089Z,6.65
2019-01-31T22:53:21.970Z,6.58
2019-01-31T22:55:50.225Z,7.33
2019-01-31T22:58:20.145Z,7.97
2019-01-31T23:01:30.181Z,7.78
2019-01-31T23:03:58.117Z,7.15
2019-01-31T23:06:26.079Z,6.40
2019-01-31T23:08:54.045Z,7.35
2019-01-31T23:11:27.927Z,6.25
2019-01-31T23:13:51.739Z,7.05
2019-01-31T23:16:20.170Z,6.62
2019-01-31T23:18:49.768Z,6.50
2019-01-31T23:21:17.677Z,7.00
2019-01-31T23:23:46.705Z,6.80
2019-01-31T23:26:14.677Z,7.03
2019-01-31T23:28:43.701Z,7.10
2019-01-31T23:31:13.062Z,7.17
2019-01-31T23:33:41.350Z,6.12
2019-01-31T23:36:09.332Z,7.12
2019-01-31T23:38:41.311Z,6.28
2019-01-31T23:41:10.235Z,6.47
2019-01-31T23:43:38.135Z,6.55
2019-01-31T23:46:07.722Z,6.80
2019-01-31T23:48:35.685Z,5.92
2019-01-31T23:51:05.426Z,6.35
2019-01-31T23:53:33.293Z,6.83
2019-01-31T23:56:02.624Z,6.12
2019-01-31T23:58:30.493Z,6.03
